sensor_id;sensor_type;location;lat;lon;timestamp;P1;durP1;ratioP1;P2;durP2;ratioP2
51216;SDS011;37283;49.760;8.648;2023-04-25T01:30:17;5.95;;;4.63;;
51216;SDS011;37283;49.760;8.648;2023-04-25T01:37:09;5.45;;;4.95;;
51216;SDS011;37283;49.760;8.648;2023-04-25T01:40:05;7.28;;;5.25;;
51216;SDS011;37283;49.760;8.648;2023-04-25T01:54:18;7.55;;;5.72;;
51216;SDS011;37283;49.760;8.648;2023-04-25T01:56:49;7.18;;;6.40;;
51216;SDS011;37283;49.760;8.648;2023-04-25T02:11:02;7.55;;;5.97;;
51216;SDS011;37283;49.760;8.648;2023-04-25T02:22:40;7.93;;;7.05;;
51216;SDS011;37283;49.760;8.648;2023-04-25T02:25:07;7.80;;;7.00;;
51216;SDS011;37283;49.760;8.648;2023-04-25T02:27:35;7.55;;;6.38;;
51216;SDS011;37283;49.760;8.648;2023-04-25T03:17:11;9.93;;;8.73;;
51216;SDS011;37283;49.760;8.648;2023-04-25T03:25:42;9.82;;;8.27;;
51216;SDS011;37283;49.760;8.648;2023-04-25T03:37:18;9.90;;;8.85;;
51216;SDS011;37283;49.760;8.648;2023-04-25T04:19:15;10.20;;;9.20;;
51216;SDS011;37283;49.760;8.648;2023-04-25T04:39:16;12.02;;;10.23;;
51216;SDS011;37283;49.760;8.648;2023-04-25T04:54:14;11.45;;;9.05;;
51216;SDS011;37283;49.760;8.648;2023-04-25T05:03:31;11.20;;;9.50;;
51216;SDS011;37283;49.760;8.648;2023-04-25T05:08:36;12.90;;;9.52;;
51216;SDS011;37283;49.760;8.648;2023-04-25T05:11:15;12.80;;;9.90;;
51216;SDS011;37283;49.760;8.648;2023-04-25T05:13:55;12.90;;;9.73;;
51216;SDS011;37283;49.760;8.648;2023-04-25T05:16:48;10.68;;;9.25;;
51216;SDS011;37283;49.760;8.648;2023-04-25T05:19:34;10.20;;;9.23;;
51216;SDS011;37283;49.760;8.648;2023-04-25T05:22:33;11.20;;;9.65;;
51216;SDS011;37283;49.760;8.648;2023-04-25T05:25:10;12.05;;;10.73;;
51216;SDS011;37283;49.760;8.648;2023-04-25T05:27:53;13.65;;;11.05;;
51216;SDS011;37283;49.760;8.648;2023-04-25T05:30:36;10.55;;;7.97;;
51216;SDS011;37283;49.760;8.648;2023-04-25T05:33:14;11.05;;;8.63;;
51216;SDS011;37283;49.760;8.648;2023-04-25T05:35:41;10.43;;;8.85;;
51216;SDS011;37283;49.760;8.648;2023-04-25T05:38:07;11.00;;;9.70;;
51216;SDS011;37283;49.760;8.648;2023-04-25T05:41:03;10.30;;;8.25;;
51216;SDS011;37283;49.760;8.648;2023-04-25T05:43:54;9.15;;;7.93;;
51216;SDS011;37283;49.760;8.648;2023-04-25T05:46:35;13.13;;;8.68;;
51216;SDS011;37283;49.760;8.648;2023-04-25T05:49:29;12.30;;;8.57;;
51216;SDS011;37283;49.760;8.648;2023-04-25T05:52:03;16.10;;;9.10;;
51216;SDS011;37283;49.760;8.648;2023-04-25T05:54:41;9.48;;;7.88;;
51216;SDS011;37283;49.760;8.648;2023-04-25T05:57:07;15.32;;;9.57;;
51216;SDS011;37283;49.760;8.648;2023-04-25T05:59:34;15.45;;;9.38;;
51216;SDS011;37283;49.760;8.648;2023-04-25T06:02:01;20.30;;;8.93;;
51216;SDS011;37283;49.760;8.648;2023-04-25T06:06:57;15.75;;;8.68;;
51216;SDS011;37283;49.760;8.648;2023-04-25T06:09:24;15.25;;;8.68;;
51216;SDS011;37283;49.760;8.648;2023-04-25T06:11:52;18.70;;;9.95;;
51216;SDS011;37283;49.760;8.648;2023-04-25T06:14:19;17.13;;;8.45;;
51216;SDS011;37283;49.760;8.648;2023-04-25T06:19:14;18.92;;;9.27;;
51216;SDS011;37283;49.760;8.648;2023-04-25T06:21:42;13.35;;;8.65;;
51216;SDS011;37283;49.760;8.648;2023-04-25T06:26:40;16.63;;;9.20;;
51216;SDS011;37283;49.760;8.648;2023-04-25T06:29:06;24.23;;;11.25;;
51216;SDS011;37283;49.760;8.648;2023-04-25T06:31:33;17.85;;;9.25;;
51216;SDS011;37283;49.760;8.648;2023-04-25T06:34:00;22.15;;;9.25;;
51216;SDS011;37283;49.760;8.648;2023-04-25T06:36:28;17.23;;;9.15;;
51216;SDS011;37283;49.760;8.648;2023-04-25T06:39:01;20.98;;;9.50;;
51216;SDS011;37283;49.760;8.648;2023-04-25T06:41:28;20.58;;;9.93;;
51216;SDS011;37283;49.760;8.648;2023-04-25T06:43:58;20.67;;;9.48;;
51216;SDS011;37283;49.760;8.648;2023-04-25T06:46:38;16.17;;;9.68;;
51216;SDS011;37283;49.760;8.648;2023-04-25T06:49:05;17.98;;;9.60;;
51216;SDS011;37283;49.760;8.648;2023-04-25T06:51:32;18.75;;;10.57;;
51216;SDS011;37283;49.760;8.648;2023-04-25T06:53:58;15.95;;;8.93;;
51216;SDS011;37283;49.760;8.648;2023-04-25T06:56:31;18.42;;;9.43;;
51216;SDS011;37283;49.760;8.648;2023-04-25T06:59:06;19.48;;;9.35;;
51216;SDS011;37283;49.760;8.648;2023-04-25T07:01:38;13.55;;;8.75;;
51216;SDS011;37283;49.760;8.648;2023-04-25T07:04:10;18.73;;;9.50;;
51216;SDS011;37283;49.760;8.648;2023-04-25T07:06:42;20.23;;;9.48;;
51216;SDS011;37283;49.760;8.648;2023-04-25T07:09:10;18.77;;;9.15;;
51216;SDS011;37283;49.760;8.648;2023-04-25T07:11:37;16.90;;;8.55;;
51216;SDS011;37283;49.760;8.648;2023-04-25T07:14:03;13.90;;;8.50;;
51216;SDS011;37283;49.760;8.648;2023-04-25T07:16:30;17.17;;;8.27;;
51216;SDS011;37283;49.760;8.648;2023-04-25T07:18:58;18.40;;;7.65;;
51216;SDS011;37283;49.760;8.648;2023-04-25T07:21:25;14.65;;;7.13;;
51216;SDS011;37283;49.760;8.648;2023-04-25T07:23:53;11.57;;;6.13;;
51216;SDS011;37283;49.760;8.648;2023-04-25T07:26:25;13.27;;;5.60;;
51216;SDS011;37283;49.760;8.648;2023-04-25T07:29:15;12.85;;;6.00;;
51216;SDS011;37283;49.760;8.648;2023-04-25T07:31:41;14.30;;;6.10;;
51216;SDS011;37283;49.760;8.648;2023-04-25T07:34:08;14.45;;;6.35;;
51216;SDS011;37283;49.760;8.648;2023-04-25T07:36:37;13.07;;;5.10;;
51216;SDS011;37283;49.760;8.648;2023-04-25T07:39:04;11.77;;;4.75;;
51216;SDS011;37283;49.760;8.648;2023-04-25T07:41:30;10.70;;;5.45;;
51216;SDS011;37283;49.760;8.648;2023-04-25T07:43:57;15.98;;;6.05;;
51216;SDS011;37283;49.760;8.648;2023-04-25T07:46:24;11.02;;;5.95;;
51216;SDS011;37283;49.760;8.648;2023-04-25T07:48:51;12.63;;;5.25;;
51216;SDS011;37283;49.760;8.648;2023-04-25T07:51:18;13.18;;;5.60;;
51216;SDS011;37283;49.760;8.648;2023-04-25T07:53:47;12.65;;;5.22;;
51216;SDS011;37283;49.760;8.648;2023-04-25T07:56:16;10.80;;;5.38;;
51216;SDS011;37283;49.760;8.648;2023-04-25T07:58:46;15.38;;;6.28;;
51216;SDS011;37283;49.760;8.648;2023-04-25T08:01:14;16.92;;;6.57;;
51216;SDS011;37283;49.760;8.648;2023-04-25T08:03:52;14.02;;;6.50;;
51216;SDS011;37283;49.760;8.648;2023-04-25T08:06:25;19.17;;;7.32;;
51216;SDS011;37283;49.760;8.648;2023-04-25T08:09:02;15.50;;;7.13;;
51216;SDS011;37283;49.760;8.648;2023-04-25T08:11:35;16.58;;;6.53;;
51216;SDS011;37283;49.760;8.648;2023-04-25T08:14:05;11.35;;;5.57;;
51216;SDS011;37283;49.760;8.648;2023-04-25T08:16:32;11.20;;;5.85;;
51216;SDS011;37283;49.760;8.648;2023-04-25T08:19:00;10.23;;;5.15;;
51216;SDS011;37283;49.760;8.648;2023-04-25T08:21:27;12.93;;;5.78;;
51216;SDS011;37283;49.760;8.648;2023-04-25T08:23:55;13.93;;;6.18;;
51216;SDS011;37283;49.760;8.648;2023-04-25T08:26:28;12.73;;;5.93;;
51216;SDS011;37283;49.760;8.648;2023-04-25T08:28:55;14.13;;;6.78;;
51216;SDS011;37283;49.760;8.648;2023-04-25T08:31:22;13.35;;;6.90;;
51216;SDS011;37283;49.760;8.648;2023-04-25T08:33:56;16.58;;;7.32;;
51216;SDS011;37283;49.760;8.648;2023-04-25T08:36:40;10.27;;;5.57;;
51216;SDS011;37283;49.760;8.648;2023-04-25T08:39:20;12.45;;;5.82;;
51216;SDS011;37283;49.760;8.648;2023-04-25T08:42:07;14.32;;;5.85;;
51216;SDS011;37283;49.760;8.648;2023-04-25T08:44:36;12.90;;;5.37;;
51216;SDS011;37283;49.760;8.648;2023-04-25T08:47:03;11.82;;;5.15;;
51216;SDS011;37283;49.760;8.648;2023-04-25T08:49:35;15.65;;;5.72;;
51216;SDS011;37283;49.760;8.648;2023-04-25T08:52:03;11.05;;;5.82;;
51216;SDS011;37283;49.760;8.648;2023-04-25T08:54:34;10.15;;;5.13;;
51216;SDS011;37283;49.760;8.648;2023-04-25T08:57:05;10.05;;;5.30;;
51216;SDS011;37283;49.760;8.648;2023-04-25T08:59:32;10.75;;;5.07;;
51216;SDS011;37283;49.760;8.648;2023-04-25T09:02:00;13.47;;;6.33;;
51216;SDS011;37283;49.760;8.648;2023-04-25T09:04:30;8.05;;;5.40;;
51216;SDS011;37283;49.760;8.648;2023-04-25T09:09:25;14.80;;;5.03;;
51216;SDS011;37283;49.760;8.648;2023-04-25T09:11:52;10.00;;;4.53;;
51216;SDS011;37283;49.760;8.648;2023-04-25T09:14:21;9.77;;;5.53;;
51216;SDS011;37283;49.760;8.648;2023-04-25T09:17:02;10.13;;;4.93;;
51216;SDS011;37283;49.760;8.648;2023-04-25T09:22:22;11.80;;;5.00;;
51216;SDS011;37283;49.760;8.648;2023-04-25T09:24:49;9.02;;;3.97;;
51216;SDS011;37283;49.760;8.648;2023-04-25T09:29:49;9.13;;;4.32;;
51216;SDS011;37283;49.760;8.648;2023-04-25T09:32:23;8.55;;;3.90;;
51216;SDS011;37283;49.760;8.648;2023-04-25T09:34:54;9.68;;;3.60;;
51216;SDS011;37283;49.760;8.648;2023-04-25T09:37:23;8.65;;;3.33;;
51216;SDS011;37283;49.760;8.648;2023-04-25T09:40:09;6.88;;;3.10;;
51216;SDS011;37283;49.760;8.648;2023-04-25T09:42:54;8.75;;;3.10;;
51216;SDS011;37283;49.760;8.648;2023-04-25T09:45:23;7.85;;;3.45;;
51216;SDS011;37283;49.760;8.648;2023-04-25T09:47:50;7.55;;;4.00;;
51216;SDS011;37283;49.760;8.648;2023-04-25T09:50:25;8.38;;;3.40;;
51216;SDS011;37283;49.760;8.648;2023-04-25T09:53:04;9.77;;;3.58;;
51216;SDS011;37283;49.760;8.648;2023-04-25T09:55:48;9.52;;;3.60;;
51216;SDS011;37283;49.760;8.648;2023-04-25T09:58:15;8.18;;;2.95;;
51216;SDS011;37283;49.760;8.648;2023-04-25T10:00:41;4.78;;;2.50;;
51216;SDS011;37283;49.760;8.648;2023-04-25T10:03:21;8.27;;;3.08;;
51216;SDS011;37283;49.760;8.648;2023-04-25T10:06:07;7.68;;;3.67;;
51216;SDS011;37283;49.760;8.648;2023-04-25T10:08:36;6.90;;;3.08;;
51216;SDS011;37283;49.760;8.648;2023-04-25T10:11:05;8.25;;;2.90;;
51216;SDS011;37283;49.760;8.648;2023-04-25T10:13:33;7.50;;;2.67;;
51216;SDS011;37283;49.760;8.648;2023-04-25T10:16:02;7.47;;;2.80;;
51216;SDS011;37283;49.760;8.648;2023-04-25T10:18:30;6.95;;;2.63;;
51216;SDS011;37283;49.760;8.648;2023-04-25T10:21:01;6.70;;;2.65;;
51216;SDS011;37283;49.760;8.648;2023-04-25T10:23:29;6.85;;;2.67;;
51216;SDS011;37283;49.760;8.648;2023-04-25T10:25:56;5.18;;;2.63;;
51216;SDS011;37283;49.760;8.648;2023-04-25T10:28:23;6.75;;;2.70;;
51216;SDS011;37283;49.760;8.648;2023-04-25T10:30:57;6.50;;;2.70;;
51216;SDS011;37283;49.760;8.648;2023-04-25T10:33:37;8.30;;;3.15;;
51216;SDS011;37283;49.760;8.648;2023-04-25T10:39:03;5.45;;;2.40;;
51216;SDS011;37283;49.760;8.648;2023-04-25T10:41:45;7.25;;;2.65;;
51216;SDS011;37283;49.760;8.648;2023-04-25T10:44:18;5.93;;;2.50;;
51216;SDS011;37283;49.760;8.648;2023-04-25T10:46:44;5.82;;;3.10;;
51216;SDS011;37283;49.760;8.648;2023-04-25T10:49:28;5.60;;;3.03;;
51216;SDS011;37283;49.760;8.648;2023-04-25T10:52:12;4.30;;;2.38;;
51216;SDS011;37283;49.760;8.648;2023-04-25T11:00:19;8.38;;;3.38;;
51216;SDS011;37283;49.760;8.648;2023-04-25T11:02:53;5.28;;;3.30;;
51216;SDS011;37283;49.760;8.648;2023-04-25T11:05:34;9.27;;;3.63;;
51216;SDS011;37283;49.760;8.648;2023-04-25T11:08:23;8.00;;;3.70;;
51216;SDS011;37283;49.760;8.648;2023-04-25T11:10:59;8.93;;;3.97;;
51216;SDS011;37283;49.760;8.648;2023-04-25T11:13:29;8.07;;;3.67;;
51216;SDS011;37283;49.760;8.648;2023-04-25T11:15:56;6.72;;;3.53;;
51216;SDS011;37283;49.760;8.648;2023-04-25T11:18:40;8.50;;;3.72;;
51216;SDS011;37283;49.760;8.648;2023-04-25T11:21:08;6.43;;;4.05;;
51216;SDS011;37283;49.760;8.648;2023-04-25T11:23:34;6.35;;;3.70;;
51216;SDS011;37283;49.760;8.648;2023-04-25T11:26:01;9.43;;;4.35;;
51216;SDS011;37283;49.760;8.648;2023-04-25T11:28:29;5.88;;;3.60;;
51216;SDS011;37283;49.760;8.648;2023-04-25T11:30:56;7.95;;;4.20;;
51216;SDS011;37283;49.760;8.648;2023-04-25T11:33:23;7.00;;;3.85;;
51216;SDS011;37283;49.760;8.648;2023-04-25T11:35:54;9.45;;;4.50;;
51216;SDS011;37283;49.760;8.648;2023-04-25T11:38:24;10.55;;;4.95;;
51216;SDS011;37283;49.760;8.648;2023-04-25T11:40:54;7.65;;;4.53;;
51216;SDS011;37283;49.760;8.648;2023-04-25T11:43:21;7.55;;;4.63;;
51216;SDS011;37283;49.760;8.648;2023-04-25T11:45:48;7.93;;;4.68;;
51216;SDS011;37283;49.760;8.648;2023-04-25T11:48:17;7.47;;;4.35;;
51216;SDS011;37283;49.760;8.648;2023-04-25T11:50:44;9.35;;;4.80;;
51216;SDS011;37283;49.760;8.648;2023-04-25T11:53:11;7.05;;;4.90;;
51216;SDS011;37283;49.760;8.648;2023-04-25T11:55:38;9.20;;;5.38;;
51216;SDS011;37283;49.760;8.648;2023-04-25T11:58:05;8.40;;;4.93;;
51216;SDS011;37283;49.760;8.648;2023-04-25T12:00:31;9.00;;;4.28;;
51216;SDS011;37283;49.760;8.648;2023-04-25T12:02:58;6.57;;;4.18;;
51216;SDS011;37283;49.760;8.648;2023-04-25T12:05:26;7.43;;;3.92;;
51216;SDS011;37283;49.760;8.648;2023-04-25T12:08:09;8.07;;;4.95;;
51216;SDS011;37283;49.760;8.648;2023-04-25T12:10:40;7.13;;;4.20;;
51216;SDS011;37283;49.760;8.648;2023-04-25T12:13:20;10.13;;;4.40;;
51216;SDS011;37283;49.760;8.648;2023-04-25T12:15:47;6.20;;;4.00;;
51216;SDS011;37283;49.760;8.648;2023-04-25T12:18:15;7.43;;;4.40;;
51216;SDS011;37283;49.760;8.648;2023-04-25T12:20:45;6.47;;;4.20;;
51216;SDS011;37283;49.760;8.648;2023-04-25T12:23:11;8.07;;;4.50;;
51216;SDS011;37283;49.760;8.648;2023-04-25T12:25:42;7.63;;;4.30;;
51216;SDS011;37283;49.760;8.648;2023-04-25T12:31:00;10.38;;;4.40;;
51216;SDS011;37283;49.760;8.648;2023-04-25T12:33:29;10.00;;;4.68;;
51216;SDS011;37283;49.760;8.648;2023-04-25T12:35:56;6.53;;;4.40;;
51216;SDS011;37283;49.760;8.648;2023-04-25T12:38:27;8.43;;;4.93;;
51216;SDS011;37283;49.760;8.648;2023-04-25T12:40:56;8.60;;;4.60;;
51216;SDS011;37283;49.760;8.648;2023-04-25T12:43:23;9.50;;;4.10;;
51216;SDS011;37283;49.760;8.648;2023-04-25T12:45:50;7.35;;;4.53;;
51216;SDS011;37283;49.760;8.648;2023-04-25T12:48:18;9.57;;;4.20;;
51216;SDS011;37283;49.760;8.648;2023-04-25T12:50:45;9.18;;;4.20;;
51216;SDS011;37283;49.760;8.648;2023-04-25T12:53:15;10.43;;;4.45;;
51216;SDS011;37283;49.760;8.648;2023-04-25T12:55:42;8.23;;;4.40;;
51216;SDS011;37283;49.760;8.648;2023-04-25T12:58:09;9.43;;;3.88;;
51216;SDS011;37283;49.760;8.648;2023-04-25T13:00:35;8.40;;;3.55;;
51216;SDS011;37283;49.760;8.648;2023-04-25T13:03:02;10.93;;;4.05;;
51216;SDS011;37283;49.760;8.648;2023-04-25T13:05:29;8.60;;;4.05;;
51216;SDS011;37283;49.760;8.648;2023-04-25T13:07:56;9.20;;;3.47;;
51216;SDS011;37283;49.760;8.648;2023-04-25T13:10:23;9.48;;;3.72;;
51216;SDS011;37283;49.760;8.648;2023-04-25T13:12:49;9.50;;;4.10;;
51216;SDS011;37283;49.760;8.648;2023-04-25T13:15:16;9.90;;;3.63;;
51216;SDS011;37283;49.760;8.648;2023-04-25T13:17:43;10.63;;;3.72;;
51216;SDS011;37283;49.760;8.648;2023-04-25T13:20:09;8.77;;;3.53;;
51216;SDS011;37283;49.760;8.648;2023-04-25T13:22:37;10.48;;;3.40;;
51216;SDS011;37283;49.760;8.648;2023-04-25T13:25:05;7.63;;;3.30;;
51216;SDS011;37283;49.760;8.648;2023-04-25T13:27:33;7.20;;;3.13;;
51216;SDS011;37283;49.760;8.648;2023-04-25T13:30:00;8.77;;;3.35;;
51216;SDS011;37283;49.760;8.648;2023-04-25T13:32:36;10.45;;;3.88;;
51216;SDS011;37283;49.760;8.648;2023-04-25T13:35:04;10.93;;;3.13;;
51216;SDS011;37283;49.760;8.648;2023-04-25T13:37:34;8.73;;;3.10;;
51216;SDS011;37283;49.760;8.648;2023-04-25T13:40:02;8.23;;;3.50;;
51216;SDS011;37283;49.760;8.648;2023-04-25T13:42:31;8.77;;;2.85;;
51216;SDS011;37283;49.760;8.648;2023-04-25T13:44:58;10.00;;;2.97;;
51216;SDS011;37283;49.760;8.648;2023-04-25T13:47:25;7.28;;;2.85;;
51216;SDS011;37283;49.760;8.648;2023-04-25T13:49:51;10.30;;;3.60;;
51216;SDS011;37283;49.760;8.648;2023-04-25T13:52:18;10.50;;;2.92;;
51216;SDS011;37283;49.760;8.648;2023-04-25T13:54:44;9.18;;;3.00;;
51216;SDS011;37283;49.760;8.648;2023-04-25T13:57:11;7.00;;;2.50;;
51216;SDS011;37283;49.760;8.648;2023-04-25T13:59:38;8.57;;;3.00;;
51216;SDS011;37283;49.760;8.648;2023-04-25T14:02:04;7.45;;;2.75;;
51216;SDS011;37283;49.760;8.648;2023-04-25T14:04:31;6.35;;;2.90;;
51216;SDS011;37283;49.760;8.648;2023-04-25T14:06:58;10.68;;;3.42;;
51216;SDS011;37283;49.760;8.648;2023-04-25T14:09:25;7.95;;;3.08;;
51216;SDS011;37283;49.760;8.648;2023-04-25T14:11:53;6.95;;;2.70;;
51216;SDS011;37283;49.760;8.648;2023-04-25T14:14:20;8.38;;;3.22;;
51216;SDS011;37283;49.760;8.648;2023-04-25T14:16:48;8.50;;;2.88;;
51216;SDS011;37283;49.760;8.648;2023-04-25T14:19:14;8.90;;;3.22;;
51216;SDS011;37283;49.760;8.648;2023-04-25T14:21:41;8.38;;;3.22;;
51216;SDS011;37283;49.760;8.648;2023-04-25T14:24:09;10.90;;;3.30;;
51216;SDS011;37283;49.760;8.648;2023-04-25T14:26:37;10.40;;;3.58;;
51216;SDS011;37283;49.760;8.648;2023-04-25T14:29:04;8.15;;;3.08;;
51216;SDS011;37283;49.760;8.648;2023-04-25T14:31:31;10.23;;;3.63;;
51216;SDS011;37283;49.760;8.648;2023-04-25T14:33:58;9.23;;;2.50;;
51216;SDS011;37283;49.760;8.648;2023-04-25T14:36:25;8.85;;;3.40;;
51216;SDS011;37283;49.760;8.648;2023-04-25T14:38:52;6.45;;;2.95;;
51216;SDS011;37283;49.760;8.648;2023-04-25T14:41:19;8.18;;;2.42;;
51216;SDS011;37283;49.760;8.648;2023-04-25T14:43:45;6.85;;;2.65;;
51216;SDS011;37283;49.760;8.648;2023-04-25T14:46:11;8.45;;;2.95;;
51216;SDS011;37283;49.760;8.648;2023-04-25T14:48:38;10.77;;;4.07;;
51216;SDS011;37283;49.760;8.648;2023-04-25T14:51:05;10.88;;;3.63;;
51216;SDS011;37283;49.760;8.648;2023-04-25T14:53:32;9.02;;;2.70;;
51216;SDS011;37283;49.760;8.648;2023-04-25T14:55:58;6.50;;;2.75;;
51216;SDS011;37283;49.760;8.648;2023-04-25T14:58:25;8.13;;;3.45;;
51216;SDS011;37283;49.760;8.648;2023-04-25T15:00:52;9.07;;;3.05;;
51216;SDS011;37283;49.760;8.648;2023-04-25T15:03:18;11.52;;;3.25;;
51216;SDS011;37283;49.760;8.648;2023-04-25T15:05:45;7.85;;;2.65;;
51216;SDS011;37283;49.760;8.648;2023-04-25T15:08:11;7.00;;;2.40;;
51216;SDS011;37283;49.760;8.648;2023-04-25T15:10:38;7.88;;;2.30;;
51216;SDS011;37283;49.760;8.648;2023-04-25T15:13:04;9.35;;;2.58;;
51216;SDS011;37283;49.760;8.648;2023-04-25T15:15:31;7.38;;;2.42;;
51216;SDS011;37283;49.760;8.648;2023-04-25T15:17:58;9.52;;;2.50;;
51216;SDS011;37283;49.760;8.648;2023-04-25T15:20:25;7.53;;;2.60;;
51216;SDS011;37283;49.760;8.648;2023-04-25T15:22:51;8.52;;;2.58;;
51216;SDS011;37283;49.760;8.648;2023-04-25T15:25:18;7.68;;;2.60;;
51216;SDS011;37283;49.760;8.648;2023-04-25T15:27:44;10.35;;;2.80;;
51216;SDS011;37283;49.760;8.648;2023-04-25T15:30:14;4.82;;;2.10;;
51216;SDS011;37283;49.760;8.648;2023-04-25T15:32:42;9.90;;;2.55;;
51216;SDS011;37283;49.760;8.648;2023-04-25T15:35:08;7.78;;;2.25;;
51216;SDS011;37283;49.760;8.648;2023-04-25T15:37:35;8.23;;;2.40;;
51216;SDS011;37283;49.760;8.648;2023-04-25T15:40:13;9.68;;;2.63;;
51216;SDS011;37283;49.760;8.648;2023-04-25T15:42:42;8.13;;;2.40;;
51216;SDS011;37283;49.760;8.648;2023-04-25T15:45:09;6.77;;;1.93;;
51216;SDS011;37283;49.760;8.648;2023-04-25T15:47:37;6.35;;;2.35;;
51216;SDS011;37283;49.760;8.648;2023-04-25T15:50:05;5.57;;;2.35;;
51216;SDS011;37283;49.760;8.648;2023-04-25T15:52:33;7.80;;;2.22;;
51216;SDS011;37283;49.760;8.648;2023-04-25T15:55:01;8.15;;;2.58;;
51216;SDS011;37283;49.760;8.648;2023-04-25T15:57:28;7.97;;;2.45;;
51216;SDS011;37283;49.760;8.648;2023-04-25T15:59:54;8.00;;;2.22;;
51216;SDS011;37283;49.760;8.648;2023-04-25T16:02:21;6.13;;;2.10;;
51216;SDS011;37283;49.760;8.648;2023-04-25T16:04:48;9.75;;;2.65;;
51216;SDS011;37283;49.760;8.648;2023-04-25T16:07:15;8.68;;;2.42;;
51216;SDS011;37283;49.760;8.648;2023-04-25T16:09:41;7.65;;;2.40;;
51216;SDS011;37283;49.760;8.648;2023-04-25T16:12:08;8.27;;;2.60;;
51216;SDS011;37283;49.760;8.648;2023-04-25T16:14:36;6.80;;;2.15;;
51216;SDS011;37283;49.760;8.648;2023-04-25T16:17:02;7.43;;;2.55;;
51216;SDS011;37283;49.760;8.648;2023-04-25T16:19:29;9.63;;;2.80;;
51216;SDS011;37283;49.760;8.648;2023-04-25T16:21:55;8.18;;;2.45;;
51216;SDS011;37283;49.760;8.648;2023-04-25T16:24:22;7.30;;;2.25;;
51216;SDS011;37283;49.760;8.648;2023-04-25T16:26:48;6.07;;;2.50;;
51216;SDS011;37283;49.760;8.648;2023-04-25T16:29:14;8.27;;;3.33;;
51216;SDS011;37283;49.760;8.648;2023-04-25T16:31:42;6.97;;;3.03;;
51216;SDS011;37283;49.760;8.648;2023-04-25T16:34:09;5.35;;;2.38;;
51216;SDS011;37283;49.760;8.648;2023-04-25T16:36:36;5.45;;;2.30;;
51216;SDS011;37283;49.760;8.648;2023-04-25T16:39:02;7.70;;;2.40;;
51216;SDS011;37283;49.760;8.648;2023-04-25T16:41:29;8.48;;;2.63;;
51216;SDS011;37283;49.760;8.648;2023-04-25T16:43:55;7.95;;;2.33;;
51216;SDS011;37283;49.760;8.648;2023-04-25T16:46:22;6.35;;;2.35;;
51216;SDS011;37283;49.760;8.648;2023-04-25T16:48:49;7.63;;;2.30;;
51216;SDS011;37283;49.760;8.648;2023-04-25T16:51:15;11.00;;;2.70;;
51216;SDS011;37283;49.760;8.648;2023-04-25T16:53:42;8.35;;;2.40;;
51216;SDS011;37283;49.760;8.648;2023-04-25T16:56:08;7.10;;;2.05;;
51216;SDS011;37283;49.760;8.648;2023-04-25T16:58:35;6.90;;;2.25;;
51216;SDS011;37283;49.760;8.648;2023-04-25T17:01:01;7.10;;;2.70;;
51216;SDS011;37283;49.760;8.648;2023-04-25T17:03:28;6.95;;;2.38;;
51216;SDS011;37283;49.760;8.648;2023-04-25T17:05:55;8.52;;;2.50;;
51216;SDS011;37283;49.760;8.648;2023-04-25T17:08:22;12.48;;;5.10;;
51216;SDS011;37283;49.760;8.648;2023-04-25T17:10:49;8.75;;;3.58;;
51216;SDS011;37283;49.760;8.648;2023-04-25T17:13:15;6.05;;;2.63;;
51216;SDS011;37283;49.760;8.648;2023-04-25T17:15:42;6.63;;;2.08;;
51216;SDS011;37283;49.760;8.648;2023-04-25T17:18:09;6.78;;;2.55;;
51216;SDS011;37283;49.760;8.648;2023-04-25T17:20:36;8.13;;;2.63;;
51216;SDS011;37283;49.760;8.648;2023-04-25T17:23:03;6.32;;;2.17;;
51216;SDS011;37283;49.760;8.648;2023-04-25T17:25:29;10.48;;;3.28;;
51216;SDS011;37283;49.760;8.648;2023-04-25T17:27:56;6.40;;;2.30;;
51216;SDS011;37283;49.760;8.648;2023-04-25T17:30:23;8.60;;;2.45;;
51216;SDS011;37283;49.760;8.648;2023-04-25T17:32:49;8.27;;;2.90;;
51216;SDS011;37283;49.760;8.648;2023-04-25T17:35:17;7.60;;;2.42;;
51216;SDS011;37283;49.760;8.648;2023-04-25T17:37:43;7.00;;;2.08;;
51216;SDS011;37283;49.760;8.648;2023-04-25T17:40:10;9.18;;;2.40;;
51216;SDS011;37283;49.760;8.648;2023-04-25T17:42:38;9.60;;;5.80;;
51216;SDS011;37283;49.760;8.648;2023-04-25T17:45:04;8.30;;;2.30;;
51216;SDS011;37283;49.760;8.648;2023-04-25T17:47:31;12.98;;;2.65;;
51216;SDS011;37283;49.760;8.648;2023-04-25T17:49:58;7.72;;;2.38;;
51216;SDS011;37283;49.760;8.648;2023-04-25T17:52:25;7.90;;;2.60;;
51216;SDS011;37283;49.760;8.648;2023-04-25T17:54:51;9.35;;;2.78;;
51216;SDS011;37283;49.760;8.648;2023-04-25T17:57:18;8.07;;;2.60;;
51216;SDS011;37283;49.760;8.648;2023-04-25T17:59:47;10.15;;;2.90;;
51216;SDS011;37283;49.760;8.648;2023-04-25T18:02:14;12.63;;;3.13;;
51216;SDS011;37283;49.760;8.648;2023-04-25T18:04:41;7.22;;;2.20;;
51216;SDS011;37283;49.760;8.648;2023-04-25T18:07:08;10.15;;;2.22;;
51216;SDS011;37283;49.760;8.648;2023-04-25T18:09:34;9.82;;;4.03;;
51216;SDS011;37283;49.760;8.648;2023-04-25T18:12:01;8.88;;;2.90;;
51216;SDS011;37283;49.760;8.648;2023-04-25T18:14:28;11.40;;;2.20;;
51216;SDS011;37283;49.760;8.648;2023-04-25T18:16:55;8.98;;;3.47;;
51216;SDS011;37283;49.760;8.648;2023-04-25T18:19:22;12.27;;;5.03;;
51216;SDS011;37283;49.760;8.648;2023-04-25T18:21:55;5.25;;;2.10;;
51216;SDS011;37283;49.760;8.648;2023-04-25T18:24:22;10.90;;;3.15;;
51216;SDS011;37283;49.760;8.648;2023-04-25T18:26:50;7.70;;;3.00;;
51216;SDS011;37283;49.760;8.648;2023-04-25T18:29:18;6.80;;;2.20;;
51216;SDS011;37283;49.760;8.648;2023-04-25T18:31:58;8.80;;;4.20;;
51216;SDS011;37283;49.760;8.648;2023-04-25T18:34:25;7.32;;;2.75;;
51216;SDS011;37283;49.760;8.648;2023-04-25T18:36:52;9.15;;;2.22;;
51216;SDS011;37283;49.760;8.648;2023-04-25T18:39:21;9.67;;;2.90;;
51216;SDS011;37283;49.760;8.648;2023-04-25T18:41:49;9.70;;;2.13;;
51216;SDS011;37283;49.760;8.648;2023-04-25T18:44:26;7.88;;;2.67;;
51216;SDS011;37283;49.760;8.648;2023-04-25T18:46:53;6.13;;;2.00;;
51216;SDS011;37283;49.760;8.648;2023-04-25T18:49:19;9.52;;;2.28;;
51216;SDS011;37283;49.760;8.648;2023-04-25T18:51:46;7.78;;;2.20;;
51216;SDS011;37283;49.760;8.648;2023-04-25T18:54:14;7.60;;;2.20;;
51216;SDS011;37283;49.760;8.648;2023-04-25T18:56:40;7.75;;;1.88;;
51216;SDS011;37283;49.760;8.648;2023-04-25T18:59:07;8.55;;;2.17;;
51216;SDS011;37283;49.760;8.648;2023-04-25T19:01:33;7.30;;;2.15;;
51216;SDS011;37283;49.760;8.648;2023-04-25T19:04:00;5.93;;;2.20;;
51216;SDS011;37283;49.760;8.648;2023-04-25T19:06:31;8.02;;;2.42;;
51216;SDS011;37283;49.760;8.648;2023-04-25T19:08:58;7.10;;;2.00;;
51216;SDS011;37283;49.760;8.648;2023-04-25T19:11:24;7.80;;;2.40;;
51216;SDS011;37283;49.760;8.648;2023-04-25T19:13:51;5.55;;;2.15;;
51216;SDS011;37283;49.760;8.648;2023-04-25T19:16:18;6.53;;;2.17;;
51216;SDS011;37283;49.760;8.648;2023-04-25T19:18:45;9.80;;;2.35;;
51216;SDS011;37283;49.760;8.648;2023-04-25T19:21:12;5.47;;;1.90;;
51216;SDS011;37283;49.760;8.648;2023-04-25T19:23:39;6.13;;;2.00;;
51216;SDS011;37283;49.760;8.648;2023-04-25T19:26:06;6.85;;;2.45;;
51216;SDS011;37283;49.760;8.648;2023-04-25T19:28:33;7.10;;;2.75;;
51216;SDS011;37283;49.760;8.648;2023-04-25T19:31:00;11.65;;;4.05;;
51216;SDS011;37283;49.760;8.648;2023-04-25T19:33:26;7.38;;;4.22;;
51216;SDS011;37283;49.760;8.648;2023-04-25T19:35:53;12.00;;;5.00;;
51216;SDS011;37283;49.760;8.648;2023-04-25T19:38:19;13.98;;;4.45;;
51216;SDS011;37283;49.760;8.648;2023-04-25T19:40:47;8.43;;;3.30;;
51216;SDS011;37283;49.760;8.648;2023-04-25T19:43:14;7.05;;;2.53;;
51216;SDS011;37283;49.760;8.648;2023-04-25T19:45:40;7.18;;;2.05;;
51216;SDS011;37283;49.760;8.648;2023-04-25T19:48:07;6.55;;;2.33;;
51216;SDS011;37283;49.760;8.648;2023-04-25T19:50:35;9.10;;;2.38;;